sensor_id;sensor_type;location;lat;lon;timestamp;P1;durP1;ratioP1;P2;durP2;ratioP2
39448;SDS011;25151;45.566;9.382;2023-07-02T00:01:57;3.05;;;2.53;;
39448;SDS011;25151;45.566;9.382;2023-07-02T00:05:00;5.70;;;2.83;;
39448;SDS011;25151;45.566;9.382;2023-07-02T00:08:03;3.33;;;2.70;;
39448;SDS011;25151;45.566;9.382;2023-07-02T00:11:08;4.28;;;3.17;;
39448;SDS011;25151;45.566;9.382;2023-07-02T00:14:13;3.78;;;2.80;;
39448;SDS011;25151;45.566;9.382;2023-07-02T00:17:17;3.55;;;2.45;;
39448;SDS011;25151;45.566;9.382;2023-07-02T00:20:21;4.38;;;2.90;;
39448;SDS011;25151;45.566;9.382;2023-07-02T00:23:24;3.65;;;2.78;;
39448;SDS011;25151;45.566;9.382;2023-07-02T00:26:30;3.15;;;2.75;;
39448;SDS011;25151;45.566;9.382;2023-07-02T00:29:33;4.47;;;2.90;;
39448;SDS011;25151;45.566;9.382;2023-07-02T00:32:37;4.57;;;2.90;;
39448;SDS011;25151;45.566;9.382;2023-07-02T00:35:40;3.00;;;2.55;;
39448;SDS011;25151;45.566;9.382;2023-07-02T00:38:44;3.03;;;2.47;;
39448;SDS011;25151;45.566;9.382;2023-07-02T00:41:50;5.32;;;2.65;;
39448;SDS011;25151;45.566;9.382;2023-07-02T00:44:53;4.47;;;2.50;;
39448;SDS011;25151;45.566;9.382;2023-07-02T00:47:57;6.57;;;2.60;;
39448;SDS011;25151;45.566;9.382;2023-07-02T00:51:01;5.75;;;3.08;;
39448;SDS011;25151;45.566;9.382;2023-07-02T00:54:04;3.70;;;2.72;;
39448;SDS011;25151;45.566;9.382;2023-07-02T00:57:09;3.38;;;2.60;;
39448;SDS011;25151;45.566;9.382;2023-07-02T01:00:12;5.18;;;3.05;;
39448;SDS011;25151;45.566;9.382;2023-07-02T01:03:17;3.95;;;2.67;;
39448;SDS011;25151;45.566;9.382;2023-07-02T01:06:25;4.97;;;2.92;;
39448;SDS011;25151;45.566;9.382;2023-07-02T01:09:29;3.28;;;2.85;;
39448;SDS011;25151;45.566;9.382;2023-07-02T01:12:34;4.00;;;3.03;;
39448;SDS011;25151;45.566;9.382;2023-07-02T01:15:38;3.75;;;3.03;;
39448;SDS011;25151;45.566;9.382;2023-07-02T01:18:42;5.03;;;2.70;;
39448;SDS011;25151;45.566;9.382;2023-07-02T01:21:48;4.95;;;2.92;;
39448;SDS011;25151;45.566;9.382;2023-07-02T01:24:52;6.32;;;2.90;;
39448;SDS011;25151;45.566;9.382;2023-07-02T01:27:55;4.60;;;2.70;;
39448;SDS011;25151;45.566;9.382;2023-07-02T01:31:00;3.92;;;2.65;;
39448;SDS011;25151;45.566;9.382;2023-07-02T01:34:03;5.10;;;2.70;;
39448;SDS011;25151;45.566;9.382;2023-07-02T01:37:10;4.45;;;2.95;;
39448;SDS011;25151;45.566;9.382;2023-07-02T01:40:13;5.07;;;3.30;;
39448;SDS011;25151;45.566;9.382;2023-07-02T01:43:17;4.55;;;2.80;;
39448;SDS011;25151;45.566;9.382;2023-07-02T01:46:20;3.33;;;2.70;;
39448;SDS011;25151;45.566;9.382;2023-07-02T01:49:24;3.80;;;3.08;;
39448;SDS011;25151;45.566;9.382;2023-07-02T01:52:31;3.95;;;2.58;;
39448;SDS011;25151;45.566;9.382;2023-07-02T01:55:34;4.45;;;3.00;;
39448;SDS011;25151;45.566;9.382;2023-07-02T01:58:37;4.05;;;2.97;;
39448;SDS011;25151;45.566;9.382;2023-07-02T02:01:41;3.72;;;3.20;;
39448;SDS011;25151;45.566;9.382;2023-07-02T02:04:45;3.58;;;2.80;;
39448;SDS011;25151;45.566;9.382;2023-07-02T02:07:50;4.10;;;2.80;;
39448;SDS011;25151;45.566;9.382;2023-07-02T02:10:53;3.88;;;2.80;;
39448;SDS011;25151;45.566;9.382;2023-07-02T02:13:57;3.20;;;2.58;;
39448;SDS011;25151;45.566;9.382;2023-07-02T02:17:01;3.70;;;2.53;;
39448;SDS011;25151;45.566;9.382;2023-07-02T02:20:06;6.10;;;3.00;;
39448;SDS011;25151;45.566;9.382;2023-07-02T02:23:11;5.65;;;2.95;;
39448;SDS011;25151;45.566;9.382;2023-07-02T02:26:14;3.95;;;2.90;;
39448;SDS011;25151;45.566;9.382;2023-07-02T02:29:18;3.20;;;2.70;;
39448;SDS011;25151;45.566;9.382;2023-07-02T02:32:21;3.85;;;2.83;;
39448;SDS011;25151;45.566;9.382;2023-07-02T02:35:24;3.25;;;2.80;;
39448;SDS011;25151;45.566;9.382;2023-07-02T02:38:30;3.40;;;2.25;;
39448;SDS011;25151;45.566;9.382;2023-07-02T02:41:34;4.22;;;2.97;;
39448;SDS011;25151;45.566;9.382;2023-07-02T02:44:38;3.10;;;2.60;;
39448;SDS011;25151;45.566;9.382;2023-07-02T02:47:41;4.75;;;2.92;;
39448;SDS011;25151;45.566;9.382;2023-07-02T02:50:45;3.55;;;2.47;;
39448;SDS011;25151;45.566;9.382;2023-07-02T02:53:50;4.20;;;3.47;;
39448;SDS011;25151;45.566;9.382;2023-07-02T02:56:53;3.50;;;2.70;;
39448;SDS011;25151;45.566;9.382;2023-07-02T02:59:57;3.65;;;2.97;;
39448;SDS011;25151;45.566;9.382;2023-07-02T03:03:01;3.80;;;2.70;;
39448;SDS011;25151;45.566;9.382;2023-07-02T03:06:06;3.08;;;2.67;;
39448;SDS011;25151;45.566;9.382;2023-07-02T03:09:11;4.22;;;3.00;;
39448;SDS011;25151;45.566;9.382;2023-07-02T03:12:14;3.67;;;2.67;;
39448;SDS011;25151;45.566;9.382;2023-07-02T03:15:18;3.25;;;2.60;;
39448;SDS011;25151;45.566;9.382;2023-07-02T03:18:22;3.65;;;2.92;;
39448;SDS011;25151;45.566;9.382;2023-07-02T03:21:25;4.90;;;2.95;;
39448;SDS011;25151;45.566;9.382;2023-07-02T03:24:32;7.28;;;3.25;;
39448;SDS011;25151;45.566;9.382;2023-07-02T03:27:35;4.30;;;2.83;;
39448;SDS011;25151;45.566;9.382;2023-07-02T03:30:39;4.07;;;2.67;;
39448;SDS011;25151;45.566;9.382;2023-07-02T03:33:42;3.50;;;2.70;;
39448;SDS011;25151;45.566;9.382;2023-07-02T03:36:46;4.28;;;2.85;;
39448;SDS011;25151;45.566;9.382;2023-07-02T03:39:51;4.95;;;2.63;;
39448;SDS011;25151;45.566;9.382;2023-07-02T03:42:54;4.45;;;2.50;;
39448;SDS011;25151;45.566;9.382;2023-07-02T03:45:57;4.55;;;2.80;;
39448;SDS011;25151;45.566;9.382;2023-07-02T03:49:01;4.35;;;3.05;;
39448;SDS011;25151;45.566;9.382;2023-07-02T03:52:06;4.78;;;3.10;;
39448;SDS011;25151;45.566;9.382;2023-07-02T03:55:11;4.82;;;2.55;;
39448;SDS011;25151;45.566;9.382;2023-07-02T03:58:14;4.38;;;3.55;;
39448;SDS011;25151;45.566;9.382;2023-07-02T04:01:17;3.72;;;2.65;;
39448;SDS011;25151;45.566;9.382;2023-07-02T04:04:21;4.88;;;3.00;;
39448;SDS011;25151;45.566;9.382;2023-07-02T04:07:25;4.22;;;2.95;;
39448;SDS011;25151;45.566;9.382;2023-07-02T04:10:30;3.33;;;2.70;;
39448;SDS011;25151;45.566;9.382;2023-07-02T04:13:33;4.65;;;2.90;;
39448;SDS011;25151;45.566;9.382;2023-07-02T04:16:36;3.67;;;2.90;;
39448;SDS011;25151;45.566;9.382;2023-07-02T04:19:40;3.53;;;2.75;;
39448;SDS011;25151;45.566;9.382;2023-07-02T04:22:44;4.28;;;3.08;;
39448;SDS011;25151;45.566;9.382;2023-07-02T04:25:50;5.03;;;2.65;;
39448;SDS011;25151;45.566;9.382;2023-07-02T04:28:54;3.35;;;2.85;;
39448;SDS011;25151;45.566;9.382;2023-07-02T04:31:57;3.55;;;2.85;;
39448;SDS011;25151;45.566;9.382;2023-07-02T04:35:01;4.05;;;2.90;;
39448;SDS011;25151;45.566;9.382;2023-07-02T04:38:06;3.70;;;2.80;;
39448;SDS011;25151;45.566;9.382;2023-07-02T04:41:12;4.78;;;3.20;;
39448;SDS011;25151;45.566;9.382;2023-07-02T04:44:15;5.53;;;2.65;;
39448;SDS011;25151;45.566;9.382;2023-07-02T04:47:21;3.10;;;2.67;;
39448;SDS011;25151;45.566;9.382;2023-07-02T04:50:25;2.95;;;2.45;;
39448;SDS011;25151;45.566;9.382;2023-07-02T04:53:29;8.10;;;2.53;;
39448;SDS011;25151;45.566;9.382;2023-07-02T04:56:39;3.58;;;3.13;;
39448;SDS011;25151;45.566;9.382;2023-07-02T04:59:43;3.45;;;2.63;;
39448;SDS011;25151;45.566;9.382;2023-07-02T05:02:47;5.57;;;3.38;;
39448;SDS011;25151;45.566;9.382;2023-07-02T05:05:51;3.42;;;2.60;;
39448;SDS011;25151;45.566;9.382;2023-07-02T05:08:55;5.53;;;2.88;;
39448;SDS011;25151;45.566;9.382;2023-07-02T05:12:03;5.38;;;2.92;;
39448;SDS011;25151;45.566;9.382;2023-07-02T05:15:07;2.88;;;2.58;;
39448;SDS011;25151;45.566;9.382;2023-07-02T05:18:12;3.97;;;2.92;;
39448;SDS011;25151;45.566;9.382;2023-07-02T05:21:17;4.15;;;2.50;;
39448;SDS011;25151;45.566;9.382;2023-07-02T05:24:21;2.85;;;2.55;;
39448;SDS011;25151;45.566;9.382;2023-07-02T05:27:27;5.70;;;2.80;;
39448;SDS011;25151;45.566;9.382;2023-07-02T05:30:30;3.72;;;2.53;;
39448;SDS011;25151;45.566;9.382;2023-07-02T05:33:36;5.82;;;2.50;;
39448;SDS011;25151;45.566;9.382;2023-07-02T05:36:41;4.40;;;2.75;;
39448;SDS011;25151;45.566;9.382;2023-07-02T05:39:46;4.72;;;2.70;;
39448;SDS011;25151;45.566;9.382;2023-07-02T05:42:51;3.60;;;2.50;;
39448;SDS011;25151;45.566;9.382;2023-07-02T05:45:57;4.38;;;2.55;;
39448;SDS011;25151;45.566;9.382;2023-07-02T05:49:03;3.08;;;2.53;;
39448;SDS011;25151;45.566;9.382;2023-07-02T05:52:06;4.45;;;3.00;;
39448;SDS011;25151;45.566;9.382;2023-07-02T05:55:11;4.05;;;2.53;;
39448;SDS011;25151;45.566;9.382;2023-07-02T05:58:16;5.35;;;3.45;;
39448;SDS011;25151;45.566;9.382;2023-07-02T06:01:20;4.53;;;3.45;;
39448;SDS011;25151;45.566;9.382;2023-07-02T06:04:25;7.95;;;3.22;;
39448;SDS011;25151;45.566;9.382;2023-07-02T06:07:29;7.45;;;3.10;;
39448;SDS011;25151;45.566;9.382;2023-07-02T06:10:34;6.68;;;3.30;;
39448;SDS011;25151;45.566;9.382;2023-07-02T06:13:40;5.20;;;2.78;;
39448;SDS011;25151;45.566;9.382;2023-07-02T06:16:44;4.35;;;3.00;;
39448;SDS011;25151;45.566;9.382;2023-07-02T06:19:48;5.28;;;3.08;;
39448;SDS011;25151;45.566;9.382;2023-07-02T06:22:52;7.28;;;2.88;;
39448;SDS011;25151;45.566;9.382;2023-07-02T06:25:56;6.85;;;2.75;;
39448;SDS011;25151;45.566;9.382;2023-07-02T06:29:05;5.10;;;3.28;;
39448;SDS011;25151;45.566;9.382;2023-07-02T06:32:09;8.23;;;2.72;;
39448;SDS011;25151;45.566;9.382;2023-07-02T06:35:13;6.15;;;2.75;;
39448;SDS011;25151;45.566;9.382;2023-07-02T06:38:17;3.47;;;2.38;;
39448;SDS011;25151;45.566;9.382;2023-07-02T06:41:21;8.98;;;2.75;;
39448;SDS011;25151;45.566;9.382;2023-07-02T06:44:28;10.95;;;3.00;;
39448;SDS011;25151;45.566;9.382;2023-07-02T06:47:32;5.25;;;2.70;;
39448;SDS011;25151;45.566;9.382;2023-07-02T06:50:36;8.73;;;2.50;;
39448;SDS011;25151;45.566;9.382;2023-07-02T06:53:41;7.07;;;3.08;;
39448;SDS011;25151;45.566;9.382;2023-07-02T06:56:47;7.10;;;2.88;;
39448;SDS011;25151;45.566;9.382;2023-07-02T07:00:01;7.72;;;2.75;;
39448;SDS011;25151;45.566;9.382;2023-07-02T07:03:05;11.57;;;3.33;;
39448;SDS011;25151;45.566;9.382;2023-07-02T07:06:08;14.73;;;3.15;;
39448;SDS011;25151;45.566;9.382;2023-07-02T07:09:12;5.13;;;2.85;;
39448;SDS011;25151;45.566;9.382;2023-07-02T07:12:15;14.68;;;2.95;;
39448;SDS011;25151;45.566;9.382;2023-07-02T07:15:21;11.93;;;2.90;;
39448;SDS011;25151;45.566;9.382;2023-07-02T07:18:25;14.10;;;3.45;;
39448;SDS011;25151;45.566;9.382;2023-07-02T07:21:30;14.93;;;2.80;;
39448;SDS011;25151;45.566;9.382;2023-07-02T07:24:34;20.70;;;2.95;;
39448;SDS011;25151;45.566;9.382;2023-07-02T07:27:37;17.95;;;3.58;;
39448;SDS011;25151;45.566;9.382;2023-07-02T07:30:42;18.45;;;3.45;;
39448;SDS011;25151;45.566;9.382;2023-07-02T07:33:44;19.58;;;3.20;;
39448;SDS011;25151;45.566;9.382;2023-07-02T07:36:48;12.48;;;3.20;;
39448;SDS011;25151;45.566;9.382;2023-07-02T07:39:51;13.57;;;3.30;;
39448;SDS011;25151;45.566;9.382;2023-07-02T07:42:56;13.07;;;2.75;;
39448;SDS011;25151;45.566;9.382;2023-07-02T07:46:02;13.27;;;2.80;;
39448;SDS011;25151;45.566;9.382;2023-07-02T07:49:05;12.90;;;2.95;;
39448;SDS011;25151;45.566;9.382;2023-07-02T07:52:09;10.45;;;3.35;;
39448;SDS011;25151;45.566;9.382;2023-07-02T07:55:12;8.57;;;3.20;;
39448;SDS011;25151;45.566;9.382;2023-07-02T07:58:15;11.90;;;3.28;;
39448;SDS011;25151;45.566;9.382;2023-07-02T08:01:20;4.47;;;2.70;;
39448;SDS011;25151;45.566;9.382;2023-07-02T08:04:23;7.05;;;2.60;;
39448;SDS011;25151;45.566;9.382;2023-07-02T08:07:26;8.13;;;3.10;;
39448;SDS011;25151;45.566;9.382;2023-07-02T08:10:29;8.98;;;2.50;;
39448;SDS011;25151;45.566;9.382;2023-07-02T08:13:32;7.55;;;2.80;;
39448;SDS011;25151;45.566;9.382;2023-07-02T08:16:37;9.10;;;3.40;;
39448;SDS011;25151;45.566;9.382;2023-07-02T08:19:39;9.38;;;3.13;;
39448;SDS011;25151;45.566;9.382;2023-07-02T08:22:42;7.20;;;2.60;;
39448;SDS011;25151;45.566;9.382;2023-07-02T08:25:46;4.22;;;2.70;;
39448;SDS011;25151;45.566;9.382;2023-07-02T08:28:48;9.57;;;2.72;;
39448;SDS011;25151;45.566;9.382;2023-07-02T08:31:52;4.80;;;2.65;;
39448;SDS011;25151;45.566;9.382;2023-07-02T08:34:55;8.63;;;3.30;;
39448;SDS011;25151;45.566;9.382;2023-07-02T08:37:58;4.15;;;2.40;;
39448;SDS011;25151;45.566;9.382;2023-07-02T08:41:00;5.70;;;2.80;;
39448;SDS011;25151;45.566;9.382;2023-07-02T08:44:04;4.55;;;2.70;;
39448;SDS011;25151;45.566;9.382;2023-07-02T08:47:11;5.55;;;2.40;;
39448;SDS011;25151;45.566;9.382;2023-07-02T08:50:15;6.45;;;3.20;;
39448;SDS011;25151;45.566;9.382;2023-07-02T08:53:19;7.13;;;2.60;;
39448;SDS011;25151;45.566;9.382;2023-07-02T08:56:26;5.47;;;2.50;;
39448;SDS011;25151;45.566;9.382;2023-07-02T08:59:29;4.50;;;2.47;;
39448;SDS011;25151;45.566;9.382;2023-07-02T09:02:34;11.75;;;2.70;;
39448;SDS011;25151;45.566;9.382;2023-07-02T09:05:47;6.75;;;3.25;;
39448;SDS011;25151;45.566;9.382;2023-07-02T09:08:51;6.00;;;2.58;;
39448;SDS011;25151;45.566;9.382;2023-07-02T09:12:06;9.38;;;2.83;;
39448;SDS011;25151;45.566;9.382;2023-07-02T09:15:13;5.65;;;2.72;;
39448;SDS011;25151;45.566;9.382;2023-07-02T09:18:21;5.07;;;2.30;;
39448;SDS011;25151;45.566;9.382;2023-07-02T09:21:25;5.72;;;2.70;;
39448;SDS011;25151;45.566;9.382;2023-07-02T09:24:30;3.42;;;2.53;;
39448;SDS011;25151;45.566;9.382;2023-07-02T09:27:34;4.40;;;2.60;;
39448;SDS011;25151;45.566;9.382;2023-07-02T09:30:48;5.20;;;2.60;;
39448;SDS011;25151;45.566;9.382;2023-07-02T09:34:02;7.03;;;2.80;;
39448;SDS011;25151;45.566;9.382;2023-07-02T09:37:06;4.78;;;2.40;;
39448;SDS011;25151;45.566;9.382;2023-07-02T09:40:09;4.78;;;2.58;;
39448;SDS011;25151;45.566;9.382;2023-07-02T09:43:13;5.55;;;2.72;;
39448;SDS011;25151;45.566;9.382;2023-07-02T09:46:18;3.78;;;2.30;;
39448;SDS011;25151;45.566;9.382;2023-07-02T09:49:27;9.70;;;2.90;;
39448;SDS011;25151;45.566;9.382;2023-07-02T09:52:34;5.10;;;2.83;;
39448;SDS011;25151;45.566;9.382;2023-07-02T09:55:39;9.95;;;2.60;;
39448;SDS011;25151;45.566;9.382;2023-07-02T09:58:44;9.00;;;2.83;;
39448;SDS011;25151;45.566;9.382;2023-07-02T10:01:48;8.23;;;2.85;;
39448;SDS011;25151;45.566;9.382;2023-07-02T10:04:53;7.03;;;2.80;;
39448;SDS011;25151;45.566;9.382;2023-07-02T10:07:57;7.88;;;2.88;;
39448;SDS011;25151;45.566;9.382;2023-07-02T10:11:13;11.88;;;3.15;;
39448;SDS011;25151;45.566;9.382;2023-07-02T10:14:17;8.23;;;3.00;;
39448;SDS011;25151;45.566;9.382;2023-07-02T10:17:26;7.75;;;3.40;;
39448;SDS011;25151;45.566;9.382;2023-07-02T10:20:33;9.27;;;3.50;;
39448;SDS011;25151;45.566;9.382;2023-07-02T10:23:37;9.63;;;3.38;;
39448;SDS011;25151;45.566;9.382;2023-07-02T10:26:51;8.55;;;2.88;;
39448;SDS011;25151;45.566;9.382;2023-07-02T10:29:55;8.75;;;3.00;;
39448;SDS011;25151;45.566;9.382;2023-07-02T10:33:07;5.53;;;3.88;;
39448;SDS011;25151;45.566;9.382;2023-07-02T10:36:19;5.03;;;3.30;;
39448;SDS011;25151;45.566;9.382;2023-07-02T10:39:23;7.47;;;2.92;;
39448;SDS011;25151;45.566;9.382;2023-07-02T10:42:27;8.40;;;3.20;;
39448;SDS011;25151;45.566;9.382;2023-07-02T10:45:31;7.40;;;3.20;;
39448;SDS011;25151;45.566;9.382;2023-07-02T10:48:35;6.15;;;3.20;;
39448;SDS011;25151;45.566;9.382;2023-07-02T10:51:40;6.75;;;3.83;;
39448;SDS011;25151;45.566;9.382;2023-07-02T10:54:43;8.27;;;3.85;;
39448;SDS011;25151;45.566;9.382;2023-07-02T10:57:48;5.80;;;3.28;;
39448;SDS011;25151;45.566;9.382;2023-07-02T11:00:52;5.07;;;3.10;;
39448;SDS011;25151;45.566;9.382;2023-07-02T11:03:55;7.72;;;3.40;;
39448;SDS011;25151;45.566;9.382;2023-07-02T11:07:03;4.45;;;3.28;;
39448;SDS011;25151;45.566;9.382;2023-07-02T11:10:07;7.82;;;3.17;;
39448;SDS011;25151;45.566;9.382;2023-07-02T11:13:13;9.55;;;3.25;;
39448;SDS011;25151;45.566;9.382;2023-07-02T11:16:21;4.88;;;3.35;;
39448;SDS011;25151;45.566;9.382;2023-07-02T11:19:26;5.40;;;3.00;;
39448;SDS011;25151;45.566;9.382;2023-07-02T11:22:33;8.50;;;3.47;;
39448;SDS011;25151;45.566;9.382;2023-07-02T11:25:37;6.40;;;3.08;;
39448;SDS011;25151;45.566;9.382;2023-07-02T11:28:48;6.60;;;2.78;;
39448;SDS011;25151;45.566;9.382;2023-07-02T11:31:52;6.82;;;3.08;;
39448;SDS011;25151;45.566;9.382;2023-07-02T11:34:56;5.05;;;3.30;;
39448;SDS011;25151;45.566;9.382;2023-07-02T11:38:03;6.93;;;2.88;;
39448;SDS011;25151;45.566;9.382;2023-07-02T11:41:10;5.68;;;3.10;;
39448;SDS011;25151;45.566;9.382;2023-07-02T11:44:14;4.72;;;2.80;;
39448;SDS011;25151;45.566;9.382;2023-07-02T11:47:18;9.32;;;2.85;;
39448;SDS011;25151;45.566;9.382;2023-07-02T11:50:22;11.18;;;3.53;;
39448;SDS011;25151;45.566;9.382;2023-07-02T11:53:27;6.28;;;3.15;;
39448;SDS011;25151;45.566;9.382;2023-07-02T11:56:30;6.20;;;3.28;;
39448;SDS011;25151;45.566;9.382;2023-07-02T11:59:34;6.45;;;2.83;;
39448;SDS011;25151;45.566;9.382;2023-07-02T12:02:41;4.20;;;2.95;;
39448;SDS011;25151;45.566;9.382;2023-07-02T12:05:44;8.27;;;3.45;;
39448;SDS011;25151;45.566;9.382;2023-07-02T12:08:51;4.13;;;3.17;;
39448;SDS011;25151;45.566;9.382;2023-07-02T12:11:54;10.05;;;3.05;;
39448;SDS011;25151;45.566;9.382;2023-07-02T12:14:57;6.28;;;3.10;;
39448;SDS011;25151;45.566;9.382;2023-07-02T12:18:01;7.20;;;2.72;;
39448;SDS011;25151;45.566;9.382;2023-07-02T12:21:05;5.10;;;2.97;;
39448;SDS011;25151;45.566;9.382;2023-07-02T12:24:10;6.78;;;3.50;;
39448;SDS011;25151;45.566;9.382;2023-07-02T12:27:13;6.15;;;3.13;;
39448;SDS011;25151;45.566;9.382;2023-07-02T12:30:17;5.50;;;2.65;;
39448;SDS011;25151;45.566;9.382;2023-07-02T12:33:20;4.25;;;2.45;;
39448;SDS011;25151;45.566;9.382;2023-07-02T12:36:24;5.70;;;2.97;;
39448;SDS011;25151;45.566;9.382;2023-07-02T12:39:31;5.63;;;3.08;;
39448;SDS011;25151;45.566;9.382;2023-07-02T12:42:35;7.22;;;2.92;;
39448;SDS011;25151;45.566;9.382;2023-07-02T12:45:39;4.03;;;3.00;;
39448;SDS011;25151;45.566;9.382;2023-07-02T12:48:43;3.47;;;2.70;;
39448;SDS011;25151;45.566;9.382;2023-07-02T12:51:47;5.65;;;3.22;;
39448;SDS011;25151;45.566;9.382;2023-07-02T12:54:53;6.65;;;3.08;;
39448;SDS011;25151;45.566;9.382;2023-07-02T12:57:56;7.25;;;3.10;;
39448;SDS011;25151;45.566;9.382;2023-07-02T13:00:59;7.20;;;3.63;;
39448;SDS011;25151;45.566;9.382;2023-07-02T13:04:03;5.70;;;2.65;;
39448;SDS011;25151;45.566;9.382;2023-07-02T13:07:07;4.93;;;3.00;;
39448;SDS011;25151;45.566;9.382;2023-07-02T13:10:12;5.68;;;3.15;;
39448;SDS011;25151;45.566;9.382;2023-07-02T13:13:16;3.53;;;2.53;;
39448;SDS011;25151;45.566;9.382;2023-07-02T13:16:19;3.38;;;2.60;;
39448;SDS011;25151;45.566;9.382;2023-07-02T13:19:22;5.95;;;2.75;;
39448;SDS011;25151;45.566;9.382;2023-07-02T13:22:27;4.28;;;2.65;;
39448;SDS011;25151;45.566;9.382;2023-07-02T13:25:32;7.03;;;2.88;;
39448;SDS011;25151;45.566;9.382;2023-07-02T13:28:36;6.05;;;2.72;;
39448;SDS011;25151;45.566;9.382;2023-07-02T13:31:41;4.63;;;2.92;;
39448;SDS011;25151;45.566;9.382;2023-07-02T13:34:44;4.68;;;2.63;;
39448;SDS011;25151;45.566;9.382;2023-07-02T13:37:50;3.03;;;2.65;;
39448;SDS011;25151;45.566;9.382;2023-07-02T13:40:56;4.95;;;2.90;;
39448;SDS011;25151;45.566;9.382;2023-07-02T13:44:00;5.40;;;2.80;;
39448;SDS011;25151;45.566;9.382;2023-07-02T13:47:04;3.08;;;2.50;;
39448;SDS011;25151;45.566;9.382;2023-07-02T13:50:08;4.35;;;2.55;;
39448;SDS011;25151;45.566;9.382;2023-07-02T13:53:12;4.70;;;2.55;;
39448;SDS011;25151;45.566;9.382;2023-07-02T13:56:17;4.20;;;2.20;;
39448;SDS011;25151;45.566;9.382;2023-07-02T13:59:21;3.15;;;2.05;;
39448;SDS011;25151;45.566;9.382;2023-07-02T14:02:25;7.75;;;2.50;;
39448;SDS011;25151;45.566;9.382;2023-07-02T14:05:27;3.38;;;2.30;;
39448;SDS011;25151;45.566;9.382;2023-07-02T14:08:30;8.15;;;3.22;;
39448;SDS011;25151;45.566;9.382;2023-07-02T14:11:34;4.93;;;2.53;;
39448;SDS011;25151;45.566;9.382;2023-07-02T14:14:40;5.32;;;2.70;;
39448;SDS011;25151;45.566;9.382;2023-07-02T14:17:43;9.20;;;2.65;;
39448;SDS011;25151;45.566;9.382;2023-07-02T14:20:52;4.13;;;2.80;;
39448;SDS011;25151;45.566;9.382;2023-07-02T14:23:56;3.15;;;2.58;;
39448;SDS011;25151;45.566;9.382;2023-07-02T14:26:59;5.78;;;2.60;;
39448;SDS011;25151;45.566;9.382;2023-07-02T14:30:05;6.38;;;2.60;;
39448;SDS011;25151;45.566;9.382;2023-07-02T14:33:09;4.43;;;2.75;;
39448;SDS011;25151;45.566;9.382;2023-07-02T14:36:12;4.40;;;2.58;;
39448;SDS011;25151;45.566;9.382;2023-07-02T14:39:16;5.10;;;2.65;;
39448;SDS011;25151;45.566;9.382;2023-07-02T14:42:20;4.20;;;2.40;;
39448;SDS011;25151;45.566;9.382;2023-07-02T14:45:25;8.88;;;2.72;;
39448;SDS011;25151;45.566;9.382;2023-07-02T14:48:29;6.15;;;2.88;;
39448;SDS011;25151;45.566;9.382;2023-07-02T14:51:31;3.60;;;2.65;;
39448;SDS011;25151;45.566;9.382;2023-07-02T14:54:34;5.57;;;2.35;;
39448;SDS011;25151;45.566;9.382;2023-07-02T14:57:38;3.65;;;2.40;;
39448;SDS011;25151;45.566;9.382;2023-07-02T15:00:44;3.63;;;2.45;;
39448;SDS011;25151;45.566;9.382;2023-07-02T15:03:48;3.08;;;2.35;;
39448;SDS011;25151;45.566;9.382;2023-07-02T15:06:51;8.38;;;2.17;;
39448;SDS011;25151;45.566;9.382;2023-07-02T15:09:55;5.63;;;2.40;;
39448;SDS011;25151;45.566;9.382;2023-07-02T15:12:58;4.07;;;2.40;;
39448;SDS011;25151;45.566;9.382;2023-07-02T15:16:03;4.40;;;2.65;;
39448;SDS011;25151;45.566;9.382;2023-07-02T15:19:07;4.30;;;2.35;;
39448;SDS011;25151;45.566;9.382;2023-07-02T15:22:12;3.00;;;2.40;;
39448;SDS011;25151;45.566;9.382;2023-07-02T15:25:16;6.93;;;2.70;;
39448;SDS011;25151;45.566;9.382;2023-07-02T15:28:19;3.53;;;2.50;;
39448;SDS011;25151;45.566;9.382;2023-07-02T15:31:24;8.57;;;3.00;;
39448;SDS011;25151;45.566;9.382;2023-07-02T15:34:27;5.03;;;2.50;;
39448;SDS011;25151;45.566;9.382;2023-07-02T15:37:31;7.78;;;2.78;;
39448;SDS011;25151;45.566;9.382;2023-07-02T15:40:34;5.88;;;2.55;;
39448;SDS011;25151;45.566;9.382;2023-07-02T15:43:39;3.38;;;2.30;;
39448;SDS011;25151;45.566;9.382;2023-07-02T15:46:45;7.25;;;2.72;;
39448;SDS011;25151;45.566;9.382;2023-07-02T15:49:48;3.42;;;2.00;;
39448;SDS011;25151;45.566;9.382;2023-07-02T15:52:52;4.88;;;2.53;;
39448;SDS011;25151;45.566;9.382;2023-07-02T15:55:56;4.07;;;2.83;;
39448;SDS011;25151;45.566;9.382;2023-07-02T15:59:00;5.47;;;2.60;;
39448;SDS011;25151;45.566;9.382;2023-07-02T16:02:07;3.58;;;2.50;;
39448;SDS011;25151;45.566;9.382;2023-07-02T16:05:11;5.22;;;2.15;;
39448;SDS011;25151;45.566;9.382;2023-07-02T16:08:15;2.88;;;2.20;;
39448;SDS011;25151;45.566;9.382;2023-07-02T16:11:19;3.95;;;1.83;;
39448;SDS011;25151;45.566;9.382;2023-07-02T16:14:24;6.07;;;2.42;;
39448;SDS011;25151;45.566;9.382;2023-07-02T16:17:29;5.70;;;3.15;;
39448;SDS011;25151;45.566;9.382;2023-07-02T16:20:32;2.85;;;2.22;;
39448;SDS011;25151;45.566;9.382;2023-07-02T16:23:36;7.63;;;2.92;;
39448;SDS011;25151;45.566;9.382;2023-07-02T16:26:40;5.65;;;2.45;;
39448;SDS011;25151;45.566;9.382;2023-07-02T16:29:43;3.63;;;2.60;;
39448;SDS011;25151;45.566;9.382;2023-07-02T16:32:49;4.20;;;2.70;;
39448;SDS011;25151;45.566;9.382;2023-07-02T16:35:52;5.30;;;2.42;;
39448;SDS011;25151;45.566;9.382;2023-07-02T16:38:55;3.20;;;2.08;;
39448;SDS011;25151;45.566;9.382;2023-07-02T16:41:59;4.70;;;2.42;;
39448;SDS011;25151;45.566;9.382;2023-07-02T16:45:05;4.40;;;2.40;;
39448;SDS011;25151;45.566;9.382;2023-07-02T16:48:12;2.83;;;2.00;;
39448;SDS011;25151;45.566;9.382;2023-07-02T16:51:15;4.43;;;2.28;;
39448;SDS011;25151;45.566;9.382;2023-07-02T16:54:19;4.80;;;3.08;;
39448;SDS011;25151;45.566;9.382;2023-07-02T16:57:25;5.28;;;2.30;;
39448;SDS011;25151;45.566;9.382;2023-07-02T17:00:29;2.97;;;2.20;;
39448;SDS011;25151;45.566;9.382;2023-07-02T17:03:34;5.25;;;2.85;;
39448;SDS011;25151;45.566;9.382;2023-07-02T17:06:37;6.03;;;2.03;;
39448;SDS011;25151;45.566;9.382;2023-07-02T17:09:41;4.57;;;2.25;;
39448;SDS011;25151;45.566;9.382;2023-07-02T17:12:47;3.33;;;2.30;;
39448;SDS011;25151;45.566;9.382;2023-07-02T17:15:52;5.72;;;2.47;;
39448;SDS011;25151;45.566;9.382;2023-07-02T17:18:58;3.90;;;2.42;;
39448;SDS011;25151;45.566;9.382;2023-07-02T17:22:01;4.07;;;2.15;;
39448;SDS011;25151;45.566;9.382;2023-07-02T17:25:07;3.25;;;2.50;;
39448;SDS011;25151;45.566;9.382;2023-07-02T17:28:11;3.35;;;1.80;;
39448;SDS011;25151;45.566;9.382;2023-07-02T17:31:16;7.40;;;2.00;;
39448;SDS011;25151;45.566;9.382;2023-07-02T17:34:23;6.65;;;2.45;;
39448;SDS011;25151;45.566;9.382;2023-07-02T17:37:28;6.40;;;2.40;;
39448;SDS011;25151;45.566;9.382;2023-07-02T17:40:36;9.10;;;2.58;;
39448;SDS011;25151;45.566;9.382;2023-07-02T17:43:41;3.90;;;2.28;;
39448;SDS011;25151;45.566;9.382;2023-07-02T17:46:43;3.75;;;2.50;;
39448;SDS011;25151;45.566;9.382;2023-07-02T17:49:47;3.28;;;2.00;;
39448;SDS011;25151;45.566;9.382;2023-07-02T17:52:49;8.98;;;2.58;;
39448;SDS011;25151;45.566;9.382;2023-07-02T17:55:51;4.53;;;2.20;;
39448;SDS011;25151;45.566;9.382;2023-07-02T17:58:53;9.55;;;2.45;;
39448;SDS011;25151;45.566;9.382;2023-07-02T18:01:55;8.55;;;2.38;;
39448;SDS011;25151;45.566;9.382;2023-07-02T18:04:59;6.18;;;2.83;;
39448;SDS011;25151;45.566;9.382;2023-07-02T18:08:02;4.97;;;2.40;;
39448;SDS011;25151;45.566;9.382;2023-07-02T18:11:04;13.43;;;2.67;;
39448;SDS011;25151;45.566;9.382;2023-07-02T18:14:06;20.58;;;3.50;;
39448;SDS011;25151;45.566;9.382;2023-07-02T18:17:08;16.85;;;3.15;;
39448;SDS011;25151;45.566;9.382;2023-07-02T18:20:12;21.05;;;3.60;;
39448;SDS011;25151;45.566;9.382;2023-07-02T18:23:15;28.38;;;3.22;;
39448;SDS011;25151;45.566;9.382;2023-07-02T18:26:17;19.40;;;3.15;;
39448;SDS011;25151;45.566;9.382;2023-07-02T18:29:19;9.30;;;2.67;;